createdAt,value
2022-11-17T00:02:17.479Z,95.51
2022-11-17T00:04:44.967Z,95.64
2022-11-17T00:07:11.570Z,94.60
2022-11-17T00:09:38.075Z,94.67
2022-11-17T00:12:24.635Z,94.96
2022-11-17T00:14:54.071Z,94.77
2022-11-17T00:17:20.641Z,93.82
2022-11-17T00:20:05.986Z,93.82
2022-11-17T00:22:32.932Z,93.71
2022-11-17T00:24:59.530Z,93.15
2022-11-17T00:27:26.276Z,91.79
2022-11-17T00:29:52.851Z,92.34
2022-11-17T00:32:38.603Z,92.35
2022-11-17T00:35:06.242Z,92.11
2022-11-17T00:37:59.878Z,92.64
2022-11-17T00:40:26.485Z,92.57
2022-11-17T00:42:53.002Z,92.73
2022-11-17T00:45:19.658Z,93.82
2022-11-17T00:47:46.245Z,93.68
2022-11-17T00:50:12.720Z,94.12
2022-11-17T00:52:39.242Z,93.88
2022-11-17T00:55:06.273Z,94.06
2022-11-17T00:57:32.841Z,93.12
2022-11-17T00:59:59.317Z,93.41
2022-11-17T01:02:25.922Z,93.86
2022-11-17T01:04:52.421Z,93.31
2022-11-17T01:07:19.020Z,94.01
2022-11-17T01:09:45.550Z,94.27
2022-11-17T01:12:12.245Z,94.16
2022-11-17T01:14:38.889Z,93.35
2022-11-17T01:17:05.400Z,91.82
2022-11-17T01:19:31.922Z,91.33
2022-11-17T01:21:58.461Z,90.52
2022-11-17T01:24:24.957Z,89.77
2022-11-17T01:26:51.962Z,89.31
2022-11-17T01:29:18.530Z,89.19
2022-11-17T01:31:46.095Z,88.65
2022-11-17T01:34:13.027Z,88.64
2022-11-17T01:37:00.513Z,88.82
2022-11-17T01:39:28.470Z,89.73
2022-11-17T01:41:55.866Z,89.96
2022-11-17T01:44:49.123Z,89.48
2022-11-17T01:47:19.888Z,89.16
2022-11-17T01:49:47.125Z,89.80
2022-11-17T01:52:13.872Z,90.33
2022-11-17T01:54:42.010Z,90.56
2022-11-17T01:57:12.496Z,90.24
2022-11-17T01:59:57.276Z,89.69
2022-11-17T02:02:23.966Z,89.50
2022-11-17T02:05:00.107Z,89.02
2022-11-17T02:07:29.005Z,88.86
2022-11-17T02:09:56.258Z,88.93
2022-11-17T02:12:24.968Z,89.60
2022-11-17T02:14:51.799Z,89.23
2022-11-17T02:17:18.905Z,89.35
2022-11-17T02:19:53.525Z,89.56
2022-11-17T02:22:38.063Z,89.64
2022-11-17T02:25:27.471Z,89.17
2022-11-17T02:28:05.640Z,89.24
2022-11-17T02:30:44.431Z,89.87
2022-11-17T02:33:23.951Z,89.43
2022-11-17T02:35:59.739Z,90.04
2022-11-17T02:39:10.435Z,90.48
2022-11-17T02:41:56.909Z,90.83
2022-11-17T02:44:32.257Z,91.64
2022-11-17T02:47:04.650Z,90.84
2022-11-17T02:49:39.437Z,90.54
2022-11-17T02:52:06.651Z,90.12
2022-11-17T02:54:33.465Z,90.03
2022-11-17T02:57:00.089Z,89.57
2022-11-17T02:59:34.219Z,89.12
2022-11-17T03:02:08.228Z,88.75
2022-11-17T03:05:15.805Z,88.91
2022-11-17T03:07:56.928Z,89.73
2022-11-17T03:10:36.383Z,89.83
2022-11-17T03:13:25.199Z,89.37
2022-11-17T03:16:05.564Z,89.40
2022-11-17T03:18:58.359Z,89.16
2022-11-17T03:21:44.726Z,89.39
2022-11-17T03:24:18.411Z,90.04
2022-11-17T03:26:51.659Z,90.64
2022-11-17T03:29:20.583Z,90.55
2022-11-17T03:31:49.248Z,91.09
2022-11-17T03:34:16.895Z,91.39
2022-11-17T03:36:47.175Z,91.75
2022-11-17T03:39:21.037Z,91.81
2022-11-17T03:41:48.856Z,92.40
2022-11-17T03:44:16.276Z,92.25
2022-11-17T03:46:43.638Z,92.93
2022-11-17T03:49:29.809Z,92.86
2022-11-17T03:51:56.736Z,92.73
2022-11-17T03:54:23.190Z,92.87
2022-11-17T03:57:20.904Z,92.58
2022-11-17T03:59:55.691Z,93.78
2022-11-17T04:02:22.689Z,93.59
2022-11-17T04:05:07.337Z,94.14
2022-11-17T04:07:42.086Z,93.99
2022-11-17T04:10:11.682Z,93.54
2022-11-17T04:12:56.469Z,93.83
2022-11-17T04:15:41.834Z,94.49
2022-11-17T04:18:08.364Z,94.21
2022-11-17T04:20:38.079Z,94.28
2022-11-17T04:23:11.589Z,94.11
2022-11-17T04:26:07.939Z,95.06
2022-11-17T04:28:37.142Z,94.65
2022-11-17T04:31:09.567Z,94.26
2022-11-17T04:33:36.973Z,94.28
2022-11-17T04:36:05.965Z,93.84
2022-11-17T04:38:32.471Z,94.09
2022-11-17T04:41:25.716Z,94.06
2022-11-17T04:43:52.436Z,94.01
2022-11-17T04:46:19.803Z,93.63
2022-11-17T04:48:47.545Z,93.94
2022-11-17T04:51:15.223Z,93.00
2022-11-17T04:53:42.570Z,93.54
2022-11-17T04:56:09.179Z,93.55
2022-11-17T04:58:35.954Z,93.36
2022-11-17T05:01:14.594Z,93.13
2022-11-17T05:03:49.116Z,93.01
2022-11-17T05:06:21.771Z,92.70
2022-11-17T05:08:49.034Z,93.26
2022-11-17T05:11:35.650Z,92.85
2022-11-17T05:14:03.043Z,92.39
2022-11-17T05:16:47.841Z,92.51
2022-11-17T05:19:17.436Z,91.77
2022-11-17T05:21:43.914Z,91.52
2022-11-17T05:24:10.398Z,91.76
2022-11-17T05:26:38.222Z,91.81
2022-11-17T05:29:06.400Z,92.15
2022-11-17T05:31:33.304Z,91.68
2022-11-17T05:33:59.830Z,91.05
2022-11-17T05:36:27.109Z,90.78
2022-11-17T05:38:57.207Z,90.57
2022-11-17T05:41:24.763Z,91.17
2022-11-17T05:43:52.087Z,91.18
2022-11-17T05:46:19.324Z,91.37
2022-11-17T05:48:46.647Z,91.13
2022-11-17T05:51:13.078Z,90.62
2022-11-17T05:53:39.548Z,90.72
2022-11-17T05:56:28.358Z,91.03
2022-11-17T05:59:01.712Z,91.22
2022-11-17T06:01:29.242Z,91.25
2022-11-17T06:03:58.337Z,90.42
2022-11-17T06:06:25.030Z,90.42
2022-11-17T06:08:51.582Z,90.61
2022-11-17T06:11:19.311Z,91.28
2022-11-17T06:13:45.706Z,90.68
2022-11-17T06:16:13.266Z,90.90
2022-11-17T06:18:45.377Z,91.02
2022-11-17T06:21:14.302Z,91.00
2022-11-17T06:23:41.101Z,90.67
2022-11-17T06:26:08.571Z,90.65
2022-11-17T06:28:36.479Z,90.34
2022-11-17T06:31:02.987Z,90.24
2022-11-17T06:33:30.709Z,90.02
2022-11-17T06:35:59.628Z,90.19
2022-11-17T06:38:26.723Z,89.60
2022-11-17T06:40:55.305Z,89.54
2022-11-17T06:43:21.836Z,89.54
2022-11-17T06:45:48.586Z,89.27
2022-11-17T06:48:16.554Z,89.32
2022-11-17T06:50:43.827Z,89.36
2022-11-17T06:53:11.795Z,88.51
2022-11-17T06:55:38.721Z,88.34
2022-11-17T06:58:07.207Z,88.18
2022-11-17T07:00:35.342Z,87.32
2022-11-17T07:03:09.125Z,86.79
2022-11-17T07:05:39.238Z,87.76
2022-11-17T07:08:08.476Z,86.44
2022-11-17T07:10:36.046Z,86.90
2022-11-17T07:13:03.221Z,86.44
2022-11-17T07:15:30.142Z,86.04
2022-11-17T07:17:57.631Z,85.61
2022-11-17T07:20:24.310Z,85.48
2022-11-17T07:22:50.773Z,85.30
2022-11-17T07:25:22.266Z,84.90
2022-11-17T07:27:49.334Z,84.80
2022-11-17T07:30:16.107Z,85.76
2022-11-17T07:32:42.626Z,86.28
2022-11-17T07:35:09.428Z,85.87
2022-11-17T07:37:35.893Z,85.82
2022-11-17T07:40:02.355Z,86.16
2022-11-17T07:42:28.889Z,85.80
2022-11-17T07:44:55.561Z,86.07
2022-11-17T07:47:22.009Z,85.99
2022-11-17T07:49:48.559Z,86.67
2022-11-17T07:52:15.043Z,86.41
2022-11-17T07:54:41.682Z,86.30
2022-11-17T07:57:08.257Z,85.79
2022-11-17T07:59:34.813Z,86.04
2022-11-17T08:02:01.473Z,86.45
2022-11-17T08:04:27.915Z,86.38
2022-11-17T08:06:55.507Z,84.93
2022-11-17T08:09:22.104Z,85.60
2022-11-17T08:11:48.756Z,85.69
2022-11-17T08:14:15.255Z,85.51
2022-11-17T08:16:42.176Z,85.63
2022-11-17T08:19:11.848Z,85.61
2022-11-17T08:21:38.322Z,85.93
2022-11-17T08:24:05.146Z,85.92
2022-11-17T08:26:31.789Z,85.67
2022-11-17T08:28:59.100Z,86.12
2022-11-17T08:31:25.725Z,86.07
2022-11-17T08:33:52.289Z,85.93
2022-11-17T08:36:18.741Z,86.08
2022-11-17T08:38:45.177Z,85.52
2022-11-17T08:41:11.792Z,86.23
2022-11-17T08:43:38.216Z,86.33
2022-11-17T08:46:05.001Z,86.36
2022-11-17T08:48:31.805Z,86.49
2022-11-17T08:50:58.556Z,85.95
2022-11-17T08:53:24.988Z,86.01
2022-11-17T08:55:52.216Z,86.16
2022-11-17T08:58:18.886Z,85.17
2022-11-17T09:00:47.583Z,85.68
2022-11-17T09:03:14.567Z,85.64
2022-11-17T09:05:43.608Z,85.11
2022-11-17T09:08:43.156Z,85.64
2022-11-17T09:10:57.032Z,86.61
2022-11-17T09:13:23.622Z,86.48
2022-11-17T09:15:50.118Z,86.86
2022-11-17T09:18:17.129Z,86.77
2022-11-17T09:20:45.904Z,86.83
2022-11-17T09:23:12.635Z,86.80
2022-11-17T09:25:39.899Z,86.67
2022-11-17T09:28:06.359Z,86.89
2022-11-17T09:30:32.897Z,86.78
2022-11-17T09:32:59.458Z,87.03
2022-11-17T09:35:25.956Z,86.95
2022-11-17T09:37:52.560Z,86.65
2022-11-17T09:40:19.869Z,87.38
2022-11-17T09:42:46.997Z,87.45
2022-11-17T09:45:29.593Z,86.91
2022-11-17T09:48:25.859Z,86.20
2022-11-17T09:50:52.860Z,85.95
2022-11-17T09:53:25.453Z,85.54
2022-11-17T09:55:56.396Z,86.32
2022-11-17T09:58:33.309Z,86.28
2022-11-17T10:01:00.936Z,86.40
2022-11-17T10:03:31.524Z,86.57
2022-11-17T10:05:59.089Z,86.57
2022-11-17T10:08:36.837Z,86.29
2022-11-17T10:11:23.326Z,85.64
2022-11-17T10:13:50.576Z,86.85
2022-11-17T10:16:17.165Z,87.42
2022-11-17T10:18:43.873Z,86.59
2022-11-17T10:21:10.509Z,86.79
2022-11-17T10:23:46.208Z,86.55
2022-11-17T10:26:14.871Z,86.75
2022-11-17T10:28:41.504Z,85.75
2022-11-17T10:31:12.011Z,85.94
2022-11-17T10:33:44.548Z,86.36
2022-11-17T10:36:26.986Z,85.90
2022-11-17T10:38:59.092Z,85.49
2022-11-17T10:41:28.755Z,86.13
2022-11-17T10:44:02.076Z,86.15
2022-11-17T10:46:36.753Z,85.76
2022-11-17T10:49:24.147Z,84.69
2022-11-17T10:52:09.463Z,84.80
2022-11-17T10:54:36.077Z,84.94
2022-11-17T10:57:06.335Z,84.33
2022-11-17T10:59:42.834Z,84.25
2022-11-17T11:02:31.786Z,84.24
2022-11-17T11:05:11.914Z,83.68
2022-11-17T11:07:38.619Z,83.75
2022-11-17T11:10:28.952Z,83.90
2022-11-17T11:13:20.584Z,83.51
2022-11-17T11:15:48.250Z,82.69
2022-11-17T11:18:17.242Z,82.75
2022-11-17T11:20:55.875Z,82.03
2022-11-17T11:23:35.909Z,82.14
2022-11-17T11:26:24.254Z,82.16
2022-11-17T11:29:11.633Z,81.95
2022-11-17T11:31:43.982Z,81.84
2022-11-17T11:34:41.225Z,81.04
2022-11-17T11:37:12.955Z,80.80
2022-11-17T11:40:00.987Z,79.58
2022-11-17T11:42:46.261Z,78.58
2022-11-17T11:45:29.276Z,79.19
2022-11-17T11:48:07.351Z,78.42
2022-11-17T11:50:41.548Z,78.15
2022-11-17T11:53:24.487Z,77.57
2022-11-17T11:56:17.137Z,77.52
2022-11-17T11:58:47.585Z,77.06
2022-11-17T12:01:15.901Z,76.30
2022-11-17T12:03:54.063Z,76.25
2022-11-17T12:06:43.109Z,75.85
2022-11-17T12:09:14.601Z,76.29
2022-11-17T12:12:00.347Z,75.40
2022-11-17T12:14:35.287Z,75.38
2022-11-17T12:17:17.469Z,74.47
2022-11-17T12:20:07.477Z,76.40
2022-11-17T12:22:36.920Z,75.51
2022-11-17T12:25:19.428Z,75.83
2022-11-17T12:27:49.785Z,74.42
2022-11-17T12:30:34.634Z,74.38
2022-11-17T12:33:05.448Z,74.17
2022-11-17T12:35:34.276Z,73.96
2022-11-17T12:38:13.070Z,74.09
2022-11-17T12:40:39.606Z,75.33
2022-11-17T12:43:15.394Z,75.61
2022-11-17T12:45:59.927Z,75.52
2022-11-17T12:48:37.190Z,74.38
2022-11-17T12:51:27.150Z,73.83
2022-11-17T12:54:02.215Z,74.11
2022-11-17T12:56:40.835Z,73.90
2022-11-17T12:59:25.936Z,72.72
2022-11-17T13:02:34.139Z,72.57
2022-11-17T13:05:28.185Z,71.29
2022-11-17T13:08:13.300Z,70.50
2022-11-17T13:10:40.184Z,70.21
2022-11-17T13:13:20.392Z,70.20
2022-11-17T13:15:51.977Z,69.81
2022-11-17T13:18:32.023Z,68.71
2022-11-17T13:20:59.117Z,70.51
2022-11-17T13:23:28.386Z,68.88
2022-11-17T13:26:16.391Z,69.52
2022-11-17T13:28:43.856Z,69.41
2022-11-17T13:31:23.972Z,66.29
2022-11-17T13:34:12.568Z,65.57
2022-11-17T13:37:01.605Z,66.50
2022-11-17T13:39:28.314Z,66.50
2022-11-17T13:41:56.387Z,67.63
2022-11-17T13:44:24.384Z,68.60
2022-11-17T13:46:50.821Z,68.98
2022-11-17T13:49:33.978Z,69.61
2022-11-17T13:52:01.474Z,69.78
2022-11-17T13:54:28.195Z,69.76
2022-11-17T13:56:57.315Z,69.33
2022-11-17T13:59:41.753Z,69.64
2022-11-17T14:02:21.191Z,69.89
2022-11-17T14:05:15.266Z,69.75
2022-11-17T14:07:43.107Z,70.48
2022-11-17T14:10:21.464Z,70.03
2022-11-17T14:12:54.452Z,69.85
2022-11-17T14:15:20.940Z,69.87
2022-11-17T14:18:05.749Z,70.63
2022-11-17T14:20:35.407Z,70.45
2022-11-17T14:23:03.669Z,71.23
2022-11-17T14:25:30.703Z,71.55
2022-11-17T14:27:57.200Z,71.85
2022-11-17T14:30:23.903Z,72.48
2022-11-17T14:32:50.483Z,73.23
2022-11-17T14:37:44.693Z,74.26
2022-11-17T14:40:20.187Z,75.17
2022-11-17T14:42:46.890Z,74.99
2022-11-17T14:45:15.626Z,75.34
2022-11-17T14:47:42.717Z,75.72
2022-11-17T14:50:16.031Z,75.63
2022-11-17T14:52:43.767Z,76.04
2022-11-17T14:55:11.740Z,77.00
2022-11-17T14:57:38.427Z,76.70
2022-11-17T15:00:07.228Z,76.64
2022-11-17T15:02:34.775Z,77.40
2022-11-17T15:05:01.706Z,77.68
2022-11-17T15:07:28.456Z,77.32
2022-11-17T15:09:57.724Z,77.06
2022-11-17T15:12:24.292Z,77.36
2022-11-17T15:14:51.017Z,78.80
2022-11-17T15:17:17.614Z,78.58
2022-11-17T15:19:44.533Z,78.92
2022-11-17T15:22:11.379Z,79.44
2022-11-17T15:24:37.868Z,79.46
2022-11-17T15:27:04.377Z,80.65
2022-11-17T15:29:30.882Z,80.52
2022-11-17T15:31:57.334Z,80.76
2022-11-17T15:34:23.819Z,80.79
2022-11-17T15:36:50.307Z,80.86
2022-11-17T15:39:17.165Z,81.09
2022-11-17T15:41:44.078Z,80.50
2022-11-17T15:44:10.805Z,80.36
2022-11-17T15:46:37.243Z,79.88
2022-11-17T15:49:03.837Z,79.91
2022-11-17T15:51:30.381Z,79.84
2022-11-17T15:53:58.930Z,79.92
2022-11-17T15:56:30.091Z,80.25
2022-11-17T15:59:03.054Z,80.49
2022-11-17T16:01:33.250Z,80.42
2022-11-17T16:04:11.117Z,80.58
2022-11-17T16:06:40.295Z,80.96
2022-11-17T16:09:07.493Z,80.91
2022-11-17T16:11:34.689Z,81.24
2022-11-17T16:14:01.603Z,81.31
2022-11-17T16:16:30.706Z,80.69
2022-11-17T16:18:57.607Z,80.76
2022-11-17T16:21:24.599Z,80.34
2022-11-17T16:23:55.599Z,79.35
2022-11-17T16:26:26.751Z,80.35
2022-11-17T16:28:57.707Z,79.07
2022-11-17T16:31:25.917Z,79.89
2022-11-17T16:34:14.168Z,79.48
2022-11-17T16:36:42.570Z,79.71
2022-11-17T16:39:11.856Z,79.32
2022-11-17T16:41:39.933Z,79.51
2022-11-17T16:44:12.228Z,78.87
2022-11-17T16:46:41.668Z,78.26
2022-11-17T16:49:10.784Z,77.94
2022-11-17T16:51:37.295Z,77.51
2022-11-17T16:54:07.807Z,77.17
2022-11-17T16:56:34.543Z,76.57
2022-11-17T16:59:01.452Z,77.96
2022-11-17T17:01:33.089Z,78.47
2022-11-17T17:04:01.268Z,77.55
2022-11-17T17:06:27.947Z,76.90
2022-11-17T17:08:59.125Z,76.55
2022-11-17T17:11:27.295Z,76.67
2022-11-17T17:13:54.713Z,76.57
2022-11-17T17:16:21.271Z,76.67
2022-11-17T17:18:47.803Z,77.30
2022-11-17T17:21:17.247Z,76.99
2022-11-17T17:23:45.317Z,76.52
2022-11-17T17:26:18.090Z,76.61
2022-11-17T17:28:46.197Z,76.61
2022-11-17T17:31:19.632Z,76.51
2022-11-17T17:33:47.883Z,76.08
2022-11-17T17:36:16.569Z,76.41
2022-11-17T17:38:43.375Z,75.87
2022-11-17T17:41:11.992Z,76.56
2022-11-17T17:43:39.134Z,76.92
2022-11-17T17:46:12.804Z,76.56
2022-11-17T17:48:44.419Z,76.67
2022-11-17T17:51:18.503Z,77.39
2022-11-17T17:53:45.357Z,78.33
2022-11-17T17:56:14.054Z,78.32
2022-11-17T17:58:41.312Z,77.35
2022-11-17T18:01:30.970Z,77.40
2022-11-17T18:04:01.305Z,77.48
2022-11-17T18:06:28.209Z,77.16
2022-11-17T18:08:58.015Z,78.36
2022-11-17T18:11:25.235Z,76.78
2022-11-17T18:13:52.408Z,77.15
2022-11-17T18:16:24.449Z,77.74
2022-11-17T18:18:56.719Z,77.87
2022-11-17T18:21:23.225Z,78.81
2022-11-17T18:23:49.807Z,79.00
2022-11-17T18:26:17.425Z,78.95
2022-11-17T18:28:49.508Z,79.94
2022-11-17T18:31:16.027Z,79.36
2022-11-17T18:33:45.238Z,78.99
2022-11-17T18:36:12.296Z,78.91
2022-11-17T18:38:38.977Z,79.36
2022-11-17T18:41:10.124Z,79.49
2022-11-17T18:43:37.401Z,80.95
2022-11-17T18:46:06.079Z,79.76
2022-11-17T18:48:38.063Z,79.61
2022-11-17T18:51:23.290Z,80.35
2022-11-17T18:53:51.599Z,80.22
2022-11-17T18:56:23.432Z,80.86
2022-11-17T18:58:50.271Z,81.94
2022-11-17T19:01:24.976Z,80.87
2022-11-17T19:03:56.437Z,81.08
2022-11-17T19:06:24.710Z,80.43
2022-11-17T19:08:51.881Z,81.05
2022-11-17T19:11:19.993Z,81.69
2022-11-17T19:13:46.870Z,82.29
2022-11-17T19:16:14.627Z,81.25
2022-11-17T19:18:41.544Z,81.88
2022-11-17T19:21:13.270Z,81.64
2022-11-17T19:23:43.447Z,80.94
2022-11-17T19:26:14.535Z,81.48
2022-11-17T19:28:41.186Z,82.36
2022-11-17T19:31:10.865Z,82.89
2022-11-17T19:33:38.604Z,83.00
2022-11-17T19:36:06.753Z,82.51
2022-11-17T19:38:33.971Z,82.59
2022-11-17T19:41:05.008Z,82.81
2022-11-17T19:43:33.043Z,81.35
2022-11-17T19:46:00.535Z,80.31
2022-11-17T19:48:28.718Z,78.74
2022-11-17T19:50:56.117Z,78.60
2022-11-17T19:53:23.498Z,79.09
2022-11-17T19:55:49.976Z,79.79
2022-11-17T19:58:17.383Z,79.93
2022-11-17T20:00:45.261Z,79.95
2022-11-17T20:03:12.759Z,78.98
2022-11-17T20:05:39.389Z,78.65
2022-11-17T20:08:06.620Z,78.22
2022-11-17T20:10:33.330Z,79.03
2022-11-17T20:13:00.229Z,78.60
2022-11-17T20:15:34.236Z,78.44
2022-11-17T20:18:01.533Z,79.09
2022-11-17T20:20:27.955Z,79.55
2022-11-17T20:22:55.665Z,79.48
2022-11-17T20:25:22.091Z,79.66
2022-11-17T20:27:48.543Z,79.29
2022-11-17T20:30:15.673Z,79.64
2022-11-17T20:32:42.129Z,79.72
2022-11-17T20:35:09.005Z,78.44
2022-11-17T20:37:35.506Z,78.63
2022-11-17T20:40:01.990Z,78.97
2022-11-17T20:42:28.390Z,79.25
2022-11-17T20:44:55.610Z,79.54
2022-11-17T20:47:27.350Z,78.92
2022-11-17T20:49:55.282Z,78.26
2022-11-17T20:52:21.795Z,77.96
2022-11-17T20:54:48.298Z,77.33
2022-11-17T20:57:15.062Z,77.38
2022-11-17T20:59:41.537Z,77.50
2022-11-17T21:02:09.469Z,77.46
2022-11-17T21:04:35.875Z,77.53
2022-11-17T21:07:02.404Z,77.31
2022-11-17T21:09:28.926Z,77.52
2022-11-17T21:11:58.227Z,77.50
2022-11-17T21:14:26.487Z,77.34
2022-11-17T21:16:55.964Z,77.27
2022-11-17T21:19:22.600Z,77.17
2022-11-17T21:21:51.580Z,77.45
2022-11-17T21:24:18.277Z,77.22
2022-11-17T21:26:45.566Z,77.11
2022-11-17T21:29:12.098Z,76.85
2022-11-17T21:31:38.629Z,76.77
2022-11-17T21:34:06.542Z,76.98
2022-11-17T21:36:33.899Z,76.67
2022-11-17T21:39:00.609Z,76.49
2022-11-17T21:41:32.138Z,76.38
2022-11-17T21:43:59.681Z,77.34
2022-11-17T21:46:28.160Z,77.12
2022-11-17T21:48:56.503Z,77.44
2022-11-17T21:51:33.176Z,77.90
2022-11-17T21:54:02.149Z,77.61
2022-11-17T21:56:28.947Z,77.80
2022-11-17T21:58:56.229Z,77.98
2022-11-17T22:01:23.716Z,78.21
2022-11-17T22:03:50.465Z,77.73
2022-11-17T22:06:18.799Z,77.81
2022-11-17T22:08:46.264Z,78.33
2022-11-17T22:11:15.457Z,78.32
2022-11-17T22:13:42.462Z,78.52
2022-11-17T22:16:13.483Z,79.10
2022-11-17T22:18:41.023Z,79.12
2022-11-17T22:21:08.212Z,79.61
2022-11-17T22:23:34.707Z,79.88
2022-11-17T22:26:03.837Z,80.71
2022-11-17T22:28:30.609Z,80.86
2022-11-17T22:30:57.329Z,80.97
2022-11-17T22:33:24.085Z,80.73
2022-11-17T22:35:50.570Z,80.53
2022-11-17T22:38:17.082Z,80.71
2022-11-17T22:40:43.869Z,81.24
2022-11-17T22:43:14.684Z,82.46
2022-11-17T22:45:41.788Z,82.31
2022-11-17T22:48:08.820Z,82.38
2022-11-17T22:50:35.794Z,82.61
2022-11-17T22:53:02.646Z,82.58
2022-11-17T22:55:29.102Z,82.58
2022-11-17T22:57:55.648Z,82.88
2022-11-17T23:00:22.119Z,82.52
2022-11-17T23:02:48.558Z,82.56
2022-11-17T23:05:15.160Z,82.80
2022-11-17T23:07:41.646Z,83.20
2022-11-17T23:10:08.423Z,82.54
2022-11-17T23:12:34.845Z,82.78
2022-11-17T23:15:01.281Z,82.72
2022-11-17T23:17:27.720Z,81.74
2022-11-17T23:19:54.728Z,82.29
2022-11-17T23:22:21.146Z,82.14
2022-11-17T23:24:47.586Z,81.19
2022-11-17T23:27:14.130Z,81.95
2022-11-17T23:29:40.577Z,82.16
2022-11-17T23:32:07.055Z,81.99
2022-11-17T23:34:33.452Z,82.18
2022-11-17T23:37:03.768Z,83.07
2022-11-17T23:39:30.607Z,84.03
2022-11-17T23:41:57.098Z,83.69
2022-11-17T23:44:23.502Z,84.03
2022-11-17T23:46:49.994Z,83.74
2022-11-17T23:49:16.918Z,84.01
2022-11-17T23:51:43.577Z,83.95
2022-11-17T23:54:13.192Z,84.83
2022-11-17T23:56:39.761Z,83.87
2022-11-17T23:59:08.033Z,83.42
